sensor_id;sensor_type;location;lat;lon;timestamp;P1;durP1;ratioP1;P2;durP2;ratioP2
4726;SDS011;2377;51.734;8.950;2022-07-01T00:00:07;10.97;;;8.80;;
4726;SDS011;2377;51.734;8.950;2022-07-01T00:02:36;15.03;;;8.97;;
4726;SDS011;2377;51.734;8.950;2022-07-01T00:05:03;10.73;;;9.50;;
4726;SDS011;2377;51.734;8.950;2022-07-01T00:07:31;10.57;;;7.80;;
4726;SDS011;2377;51.734;8.950;2022-07-01T00:09:58;12.50;;;6.57;;
4726;SDS011;2377;51.734;8.950;2022-07-01T00:12:25;8.50;;;6.63;;
4726;SDS011;2377;51.734;8.950;2022-07-01T00:14:55;8.27;;;6.83;;
4726;SDS011;2377;51.734;8.950;2022-07-01T00:17:23;7.40;;;6.30;;
4726;SDS011;2377;51.734;8.950;2022-07-01T00:19:50;8.27;;;5.57;;
4726;SDS011;2377;51.734;8.950;2022-07-01T00:22:17;7.00;;;6.00;;
4726;SDS011;2377;51.734;8.950;2022-07-01T00:24:44;8.30;;;6.60;;
4726;SDS011;2377;51.734;8.950;2022-07-01T00:27:13;6.80;;;5.47;;
4726;SDS011;2377;51.734;8.950;2022-07-01T00:29:40;8.23;;;7.43;;
4726;SDS011;2377;51.734;8.950;2022-07-01T00:32:09;7.50;;;6.53;;
4726;SDS011;2377;51.734;8.950;2022-07-01T00:34:36;8.10;;;6.93;;
4726;SDS011;2377;51.734;8.950;2022-07-01T00:37:04;9.37;;;8.07;;
4726;SDS011;2377;51.734;8.950;2022-07-01T00:39:31;8.60;;;7.50;;
4726;SDS011;2377;51.734;8.950;2022-07-01T00:42:00;7.50;;;6.80;;
4726;SDS011;2377;51.734;8.950;2022-07-01T00:44:28;11.37;;;8.03;;
4726;SDS011;2377;51.734;8.950;2022-07-01T00:46:57;8.70;;;7.50;;
4726;SDS011;2377;51.734;8.950;2022-07-01T00:49:28;10.10;;;7.83;;
4726;SDS011;2377;51.734;8.950;2022-07-01T00:51:57;8.23;;;7.00;;
4726;SDS011;2377;51.734;8.950;2022-07-01T00:54:24;9.53;;;7.37;;
4726;SDS011;2377;51.734;8.950;2022-07-01T00:56:52;10.37;;;8.17;;
4726;SDS011;2377;51.734;8.950;2022-07-01T00:59:20;10.20;;;9.10;;
4726;SDS011;2377;51.734;8.950;2022-07-01T01:01:47;11.97;;;10.70;;
4726;SDS011;2377;51.734;8.950;2022-07-01T01:04:14;10.40;;;8.47;;
4726;SDS011;2377;51.734;8.950;2022-07-01T01:06:42;11.23;;;10.00;;
4726;SDS011;2377;51.734;8.950;2022-07-01T01:09:10;14.87;;;12.13;;
4726;SDS011;2377;51.734;8.950;2022-07-01T01:11:37;12.10;;;9.93;;
4726;SDS011;2377;51.734;8.950;2022-07-01T01:14:04;10.50;;;9.20;;
4726;SDS011;2377;51.734;8.950;2022-07-01T01:16:32;17.13;;;12.93;;
4726;SDS011;2377;51.734;8.950;2022-07-01T01:19:02;16.17;;;12.43;;
4726;SDS011;2377;51.734;8.950;2022-07-01T01:21:32;18.37;;;13.17;;
4726;SDS011;2377;51.734;8.950;2022-07-01T01:24:00;17.00;;;13.90;;
4726;SDS011;2377;51.734;8.950;2022-07-01T01:26:27;19.30;;;15.63;;
4726;SDS011;2377;51.734;8.950;2022-07-01T01:28:54;14.37;;;11.60;;
4726;SDS011;2377;51.734;8.950;2022-07-01T01:31:27;19.57;;;13.23;;
4726;SDS011;2377;51.734;8.950;2022-07-01T01:33:56;14.70;;;11.40;;
4726;SDS011;2377;51.734;8.950;2022-07-01T01:36:23;15.10;;;11.23;;
4726;SDS011;2377;51.734;8.950;2022-07-01T01:38:52;12.43;;;11.10;;
4726;SDS011;2377;51.734;8.950;2022-07-01T01:41:20;11.00;;;9.37;;
4726;SDS011;2377;51.734;8.950;2022-07-01T01:43:47;9.47;;;7.63;;
4726;SDS011;2377;51.734;8.950;2022-07-01T01:46:14;11.00;;;8.23;;
4726;SDS011;2377;51.734;8.950;2022-07-01T01:48:41;9.90;;;5.80;;
4726;SDS011;2377;51.734;8.950;2022-07-01T01:51:08;7.73;;;5.70;;
4726;SDS011;2377;51.734;8.950;2022-07-01T01:53:35;6.73;;;4.87;;
4726;SDS011;2377;51.734;8.950;2022-07-01T01:56:04;6.00;;;5.27;;
4726;SDS011;2377;51.734;8.950;2022-07-01T01:58:31;6.87;;;5.13;;
4726;SDS011;2377;51.734;8.950;2022-07-01T02:00:58;6.20;;;5.37;;
4726;SDS011;2377;51.734;8.950;2022-07-01T02:03:27;8.60;;;5.83;;
4726;SDS011;2377;51.734;8.950;2022-07-01T02:05:54;5.50;;;4.43;;
4726;SDS011;2377;51.734;8.950;2022-07-01T02:08:21;6.93;;;6.00;;
4726;SDS011;2377;51.734;8.950;2022-07-01T02:10:48;9.13;;;8.20;;
4726;SDS011;2377;51.734;8.950;2022-07-01T02:13:17;6.03;;;5.33;;
4726;SDS011;2377;51.734;8.950;2022-07-01T02:15:44;12.50;;;7.20;;
4726;SDS011;2377;51.734;8.950;2022-07-01T02:18:11;11.17;;;9.40;;
4726;SDS011;2377;51.734;8.950;2022-07-01T02:20:38;12.97;;;8.70;;
4726;SDS011;2377;51.734;8.950;2022-07-01T02:23:06;9.40;;;8.33;;
4726;SDS011;2377;51.734;8.950;2022-07-01T02:25:33;10.50;;;8.70;;
4726;SDS011;2377;51.734;8.950;2022-07-01T02:28:01;11.00;;;9.20;;
4726;SDS011;2377;51.734;8.950;2022-07-01T02:30:30;12.87;;;10.60;;
4726;SDS011;2377;51.734;8.950;2022-07-01T02:33:01;14.70;;;10.30;;
4726;SDS011;2377;51.734;8.950;2022-07-01T02:35:29;16.43;;;12.40;;
4726;SDS011;2377;51.734;8.950;2022-07-01T02:37:56;14.70;;;10.33;;
4726;SDS011;2377;51.734;8.950;2022-07-01T02:40:23;13.90;;;9.20;;
4726;SDS011;2377;51.734;8.950;2022-07-01T02:42:51;14.80;;;11.30;;
4726;SDS011;2377;51.734;8.950;2022-07-01T02:45:18;13.43;;;11.03;;
4726;SDS011;2377;51.734;8.950;2022-07-01T02:47:47;13.07;;;11.60;;
4726;SDS011;2377;51.734;8.950;2022-07-01T02:50:14;18.07;;;12.37;;
4726;SDS011;2377;51.734;8.950;2022-07-01T02:52:41;14.60;;;10.53;;
4726;SDS011;2377;51.734;8.950;2022-07-01T02:55:10;18.53;;;12.10;;
4726;SDS011;2377;51.734;8.950;2022-07-01T02:57:39;12.87;;;10.40;;
4726;SDS011;2377;51.734;8.950;2022-07-01T03:00:09;13.30;;;10.57;;
4726;SDS011;2377;51.734;8.950;2022-07-01T03:02:38;14.23;;;11.13;;
4726;SDS011;2377;51.734;8.950;2022-07-01T03:05:08;12.33;;;9.97;;
4726;SDS011;2377;51.734;8.950;2022-07-01T03:07:36;11.50;;;9.30;;
4726;SDS011;2377;51.734;8.950;2022-07-01T03:10:04;11.50;;;9.03;;
4726;SDS011;2377;51.734;8.950;2022-07-01T03:12:35;12.53;;;10.80;;
4726;SDS011;2377;51.734;8.950;2022-07-01T03:15:04;11.60;;;10.17;;
4726;SDS011;2377;51.734;8.950;2022-07-01T03:17:35;12.30;;;9.60;;
4726;SDS011;2377;51.734;8.950;2022-07-01T03:20:06;14.10;;;11.07;;
4726;SDS011;2377;51.734;8.950;2022-07-01T03:22:38;14.40;;;11.33;;
4726;SDS011;2377;51.734;8.950;2022-07-01T03:25:06;13.27;;;10.87;;
4726;SDS011;2377;51.734;8.950;2022-07-01T03:27:35;17.40;;;13.20;;
4726;SDS011;2377;51.734;8.950;2022-07-01T03:30:03;14.90;;;12.07;;
4726;SDS011;2377;51.734;8.950;2022-07-01T03:32:32;14.43;;;11.10;;
4726;SDS011;2377;51.734;8.950;2022-07-01T03:35:00;17.00;;;12.30;;
4726;SDS011;2377;51.734;8.950;2022-07-01T03:37:50;21.90;;;14.17;;
4726;SDS011;2377;51.734;8.950;2022-07-01T03:40:17;22.13;;;15.67;;
4726;SDS011;2377;51.734;8.950;2022-07-01T03:42:44;22.63;;;16.03;;
4726;SDS011;2377;51.734;8.950;2022-07-01T03:45:11;23.33;;;17.50;;
4726;SDS011;2377;51.734;8.950;2022-07-01T03:47:44;25.90;;;18.60;;
4726;SDS011;2377;51.734;8.950;2022-07-01T03:50:12;24.10;;;18.30;;
4726;SDS011;2377;51.734;8.950;2022-07-01T03:52:40;29.37;;;19.53;;
4726;SDS011;2377;51.734;8.950;2022-07-01T03:55:09;26.40;;;20.30;;
4726;SDS011;2377;51.734;8.950;2022-07-01T03:57:37;28.30;;;20.20;;
4726;SDS011;2377;51.734;8.950;2022-07-01T04:00:05;28.90;;;20.47;;
4726;SDS011;2377;51.734;8.950;2022-07-01T04:02:34;30.67;;;21.87;;
4726;SDS011;2377;51.734;8.950;2022-07-01T04:05:01;30.33;;;21.97;;
4726;SDS011;2377;51.734;8.950;2022-07-01T04:07:28;26.13;;;19.20;;
4726;SDS011;2377;51.734;8.950;2022-07-01T04:09:56;26.07;;;19.60;;
4726;SDS011;2377;51.734;8.950;2022-07-01T04:12:24;27.17;;;20.47;;
4726;SDS011;2377;51.734;8.950;2022-07-01T04:14:51;25.57;;;19.63;;
4726;SDS011;2377;51.734;8.950;2022-07-01T04:17:19;29.50;;;22.23;;
4726;SDS011;2377;51.734;8.950;2022-07-01T04:19:46;27.30;;;20.27;;
4726;SDS011;2377;51.734;8.950;2022-07-01T04:22:13;26.87;;;20.17;;
4726;SDS011;2377;51.734;8.950;2022-07-01T04:24:57;28.80;;;21.37;;
4726;SDS011;2377;51.734;8.950;2022-07-01T04:27:27;26.20;;;20.13;;
4726;SDS011;2377;51.734;8.950;2022-07-01T04:29:54;32.40;;;20.10;;
4726;SDS011;2377;51.734;8.950;2022-07-01T04:32:21;26.67;;;20.77;;
4726;SDS011;2377;51.734;8.950;2022-07-01T04:34:49;28.00;;;21.27;;
4726;SDS011;2377;51.734;8.950;2022-07-01T04:37:16;22.13;;;16.93;;
4726;SDS011;2377;51.734;8.950;2022-07-01T04:39:47;24.90;;;19.90;;
4726;SDS011;2377;51.734;8.950;2022-07-01T04:42:14;25.93;;;19.20;;
4726;SDS011;2377;51.734;8.950;2022-07-01T04:44:44;23.80;;;19.40;;
4726;SDS011;2377;51.734;8.950;2022-07-01T04:47:12;26.13;;;19.47;;
4726;SDS011;2377;51.734;8.950;2022-07-01T04:49:39;22.73;;;18.20;;
4726;SDS011;2377;51.734;8.950;2022-07-01T04:52:06;21.90;;;18.00;;
4726;SDS011;2377;51.734;8.950;2022-07-01T04:54:34;22.90;;;17.70;;
4726;SDS011;2377;51.734;8.950;2022-07-01T04:57:01;24.47;;;17.30;;
4726;SDS011;2377;51.734;8.950;2022-07-01T04:59:30;25.53;;;19.50;;
4726;SDS011;2377;51.734;8.950;2022-07-01T05:01:58;22.87;;;18.80;;
4726;SDS011;2377;51.734;8.950;2022-07-01T05:04:26;26.87;;;19.40;;
4726;SDS011;2377;51.734;8.950;2022-07-01T05:06:53;22.57;;;17.03;;
4726;SDS011;2377;51.734;8.950;2022-07-01T05:09:20;26.10;;;19.10;;
4726;SDS011;2377;51.734;8.950;2022-07-01T05:11:47;22.93;;;18.13;;
4726;SDS011;2377;51.734;8.950;2022-07-01T05:14:15;24.30;;;18.00;;
4726;SDS011;2377;51.734;8.950;2022-07-01T05:16:42;26.13;;;20.13;;
4726;SDS011;2377;51.734;8.950;2022-07-01T05:19:10;29.43;;;20.20;;
4726;SDS011;2377;51.734;8.950;2022-07-01T05:21:55;29.10;;;21.27;;
4726;SDS011;2377;51.734;8.950;2022-07-01T05:24:22;30.70;;;23.07;;
4726;SDS011;2377;51.734;8.950;2022-07-01T05:26:50;28.53;;;21.23;;
4726;SDS011;2377;51.734;8.950;2022-07-01T05:29:17;29.27;;;21.40;;
4726;SDS011;2377;51.734;8.950;2022-07-01T05:31:45;29.57;;;20.97;;
4726;SDS011;2377;51.734;8.950;2022-07-01T05:34:13;33.00;;;22.77;;
4726;SDS011;2377;51.734;8.950;2022-07-01T05:36:41;32.00;;;22.17;;
4726;SDS011;2377;51.734;8.950;2022-07-01T05:39:08;28.80;;;21.93;;
4726;SDS011;2377;51.734;8.950;2022-07-01T05:41:35;34.53;;;23.77;;
4726;SDS011;2377;51.734;8.950;2022-07-01T05:44:02;28.90;;;21.10;;
4726;SDS011;2377;51.734;8.950;2022-07-01T05:46:30;36.33;;;21.43;;
4726;SDS011;2377;51.734;8.950;2022-07-01T05:48:57;26.87;;;20.10;;
4726;SDS011;2377;51.734;8.950;2022-07-01T05:51:25;32.70;;;22.20;;
4726;SDS011;2377;51.734;8.950;2022-07-01T05:53:52;28.10;;;19.77;;
4726;SDS011;2377;51.734;8.950;2022-07-01T05:56:21;30.27;;;20.97;;
4726;SDS011;2377;51.734;8.950;2022-07-01T05:58:48;29.17;;;20.43;;
4726;SDS011;2377;51.734;8.950;2022-07-01T06:01:15;27.33;;;19.80;;
4726;SDS011;2377;51.734;8.950;2022-07-01T06:03:42;28.20;;;20.90;;
4726;SDS011;2377;51.734;8.950;2022-07-01T06:06:09;27.40;;;18.80;;
4726;SDS011;2377;51.734;8.950;2022-07-01T06:08:38;23.23;;;16.83;;
4726;SDS011;2377;51.734;8.950;2022-07-01T06:11:05;26.90;;;19.07;;
4726;SDS011;2377;51.734;8.950;2022-07-01T06:13:33;31.23;;;17.53;;
4726;SDS011;2377;51.734;8.950;2022-07-01T06:16:00;32.53;;;20.83;;
4726;SDS011;2377;51.734;8.950;2022-07-01T06:18:27;25.83;;;19.07;;
4726;SDS011;2377;51.734;8.950;2022-07-01T06:20:54;27.90;;;19.37;;
4726;SDS011;2377;51.734;8.950;2022-07-01T06:23:21;27.00;;;17.90;;
4726;SDS011;2377;51.734;8.950;2022-07-01T06:25:50;26.47;;;18.27;;
4726;SDS011;2377;51.734;8.950;2022-07-01T06:28:17;25.43;;;18.00;;
4726;SDS011;2377;51.734;8.950;2022-07-01T06:30:44;23.33;;;16.93;;
4726;SDS011;2377;51.734;8.950;2022-07-01T06:33:11;24.03;;;16.43;;
4726;SDS011;2377;51.734;8.950;2022-07-01T06:35:39;24.07;;;16.57;;
4726;SDS011;2377;51.734;8.950;2022-07-01T06:38:07;21.30;;;16.37;;
4726;SDS011;2377;51.734;8.950;2022-07-01T06:40:34;24.10;;;15.50;;
4726;SDS011;2377;51.734;8.950;2022-07-01T06:43:03;22.80;;;15.80;;
4726;SDS011;2377;51.734;8.950;2022-07-01T06:45:30;20.97;;;14.20;;
4726;SDS011;2377;51.734;8.950;2022-07-01T06:47:57;19.20;;;13.80;;
4726;SDS011;2377;51.734;8.950;2022-07-01T06:50:27;16.50;;;13.20;;
4726;SDS011;2377;51.734;8.950;2022-07-01T06:52:55;18.40;;;15.07;;
4726;SDS011;2377;51.734;8.950;2022-07-01T06:55:22;19.27;;;14.30;;
4726;SDS011;2377;51.734;8.950;2022-07-01T06:57:49;22.20;;;16.30;;
4726;SDS011;2377;51.734;8.950;2022-07-01T07:00:18;22.57;;;14.10;;
4726;SDS011;2377;51.734;8.950;2022-07-01T07:02:45;18.83;;;13.90;;
4726;SDS011;2377;51.734;8.950;2022-07-01T07:05:12;17.53;;;12.90;;
4726;SDS011;2377;51.734;8.950;2022-07-01T07:07:39;24.90;;;14.60;;
4726;SDS011;2377;51.734;8.950;2022-07-01T07:10:07;17.00;;;13.60;;
4726;SDS011;2377;51.734;8.950;2022-07-01T07:12:35;18.37;;;13.80;;
4726;SDS011;2377;51.734;8.950;2022-07-01T07:15:02;20.33;;;14.73;;
4726;SDS011;2377;51.734;8.950;2022-07-01T07:17:31;22.37;;;16.17;;
4726;SDS011;2377;51.734;8.950;2022-07-01T07:19:58;20.10;;;15.50;;
4726;SDS011;2377;51.734;8.950;2022-07-01T07:22:26;19.17;;;13.20;;
4726;SDS011;2377;51.734;8.950;2022-07-01T07:24:53;18.13;;;13.80;;
4726;SDS011;2377;51.734;8.950;2022-07-01T07:27:20;17.63;;;14.13;;
4726;SDS011;2377;51.734;8.950;2022-07-01T07:29:47;18.87;;;15.00;;
4726;SDS011;2377;51.734;8.950;2022-07-01T07:32:14;16.70;;;13.90;;
4726;SDS011;2377;51.734;8.950;2022-07-01T07:34:43;20.13;;;14.27;;
4726;SDS011;2377;51.734;8.950;2022-07-01T07:37:10;20.63;;;14.93;;
4726;SDS011;2377;51.734;8.950;2022-07-01T07:39:37;18.50;;;14.13;;
4726;SDS011;2377;51.734;8.950;2022-07-01T07:42:04;17.50;;;14.47;;
4726;SDS011;2377;51.734;8.950;2022-07-01T07:44:32;19.43;;;13.97;;
4726;SDS011;2377;51.734;8.950;2022-07-01T07:46:59;17.43;;;13.70;;
4726;SDS011;2377;51.734;8.950;2022-07-01T07:49:26;24.00;;;14.17;;
4726;SDS011;2377;51.734;8.950;2022-07-01T07:51:55;16.63;;;13.70;;
4726;SDS011;2377;51.734;8.950;2022-07-01T07:54:22;18.13;;;14.60;;
4726;SDS011;2377;51.734;8.950;2022-07-01T07:56:50;17.30;;;14.57;;
4726;SDS011;2377;51.734;8.950;2022-07-01T07:59:17;18.30;;;14.17;;
4726;SDS011;2377;51.734;8.950;2022-07-01T08:01:44;16.60;;;13.63;;
4726;SDS011;2377;51.734;8.950;2022-07-01T08:04:11;16.57;;;13.80;;
4726;SDS011;2377;51.734;8.950;2022-07-01T08:06:38;15.57;;;12.93;;
4726;SDS011;2377;51.734;8.950;2022-07-01T08:09:07;15.33;;;13.03;;
4726;SDS011;2377;51.734;8.950;2022-07-01T08:11:34;14.87;;;13.07;;
4726;SDS011;2377;51.734;8.950;2022-07-01T08:14:01;17.40;;;13.23;;
4726;SDS011;2377;51.734;8.950;2022-07-01T08:16:29;23.63;;;11.90;;
4726;SDS011;2377;51.734;8.950;2022-07-01T08:18:56;15.70;;;11.97;;
4726;SDS011;2377;51.734;8.950;2022-07-01T08:21:23;15.40;;;11.93;;
4726;SDS011;2377;51.734;8.950;2022-07-01T08:23:50;15.03;;;12.13;;
4726;SDS011;2377;51.734;8.950;2022-07-01T08:26:18;15.23;;;11.97;;
4726;SDS011;2377;51.734;8.950;2022-07-01T08:28:46;16.20;;;11.60;;
4726;SDS011;2377;51.734;8.950;2022-07-01T08:31:13;15.90;;;12.37;;
4726;SDS011;2377;51.734;8.950;2022-07-01T08:33:40;15.97;;;12.60;;
4726;SDS011;2377;51.734;8.950;2022-07-01T08:36:09;13.83;;;11.33;;
4726;SDS011;2377;51.734;8.950;2022-07-01T08:38:38;15.03;;;12.27;;
4726;SDS011;2377;51.734;8.950;2022-07-01T08:41:06;16.30;;;13.17;;
4726;SDS011;2377;51.734;8.950;2022-07-01T08:43:34;12.97;;;10.70;;
4726;SDS011;2377;51.734;8.950;2022-07-01T08:46:03;14.57;;;11.47;;
4726;SDS011;2377;51.734;8.950;2022-07-01T08:48:30;13.03;;;11.63;;
4726;SDS011;2377;51.734;8.950;2022-07-01T08:50:57;14.37;;;10.93;;
4726;SDS011;2377;51.734;8.950;2022-07-01T08:53:29;14.53;;;11.13;;
4726;SDS011;2377;51.734;8.950;2022-07-01T08:55:58;15.83;;;11.13;;
4726;SDS011;2377;51.734;8.950;2022-07-01T08:58:44;13.20;;;9.93;;
4726;SDS011;2377;51.734;8.950;2022-07-01T09:01:12;12.13;;;10.00;;
4726;SDS011;2377;51.734;8.950;2022-07-01T09:03:42;14.23;;;10.67;;
4726;SDS011;2377;51.734;8.950;2022-07-01T09:06:11;12.27;;;9.20;;
4726;SDS011;2377;51.734;8.950;2022-07-01T09:08:42;13.40;;;9.63;;
4726;SDS011;2377;51.734;8.950;2022-07-01T09:11:12;15.17;;;10.77;;
4726;SDS011;2377;51.734;8.950;2022-07-01T09:13:40;16.17;;;10.10;;
4726;SDS011;2377;51.734;8.950;2022-07-01T09:16:13;13.60;;;9.50;;
4726;SDS011;2377;51.734;8.950;2022-07-01T09:21:28;12.23;;;9.90;;
4726;SDS011;2377;51.734;8.950;2022-07-01T09:23:56;14.43;;;11.13;;
4726;SDS011;2377;51.734;8.950;2022-07-01T09:26:24;12.47;;;10.90;;
4726;SDS011;2377;51.734;8.950;2022-07-01T09:28:52;13.13;;;10.23;;
4726;SDS011;2377;51.734;8.950;2022-07-01T09:31:22;14.07;;;10.80;;
4726;SDS011;2377;51.734;8.950;2022-07-01T09:34:04;12.80;;;10.03;;
4726;SDS011;2377;51.734;8.950;2022-07-01T09:36:37;15.07;;;10.70;;
4726;SDS011;2377;51.734;8.950;2022-07-01T09:39:05;13.43;;;11.17;;
4726;SDS011;2377;51.734;8.950;2022-07-01T09:41:36;11.00;;;9.43;;
4726;SDS011;2377;51.734;8.950;2022-07-01T09:44:06;14.63;;;10.70;;
4726;SDS011;2377;51.734;8.950;2022-07-01T09:46:36;16.10;;;11.13;;
4726;SDS011;2377;51.734;8.950;2022-07-01T09:49:03;14.27;;;9.00;;
4726;SDS011;2377;51.734;8.950;2022-07-01T09:51:30;14.23;;;9.97;;
4726;SDS011;2377;51.734;8.950;2022-07-01T09:53:57;10.30;;;8.13;;
4726;SDS011;2377;51.734;8.950;2022-07-01T09:56:24;8.73;;;6.70;;
4726;SDS011;2377;51.734;8.950;2022-07-01T09:58:51;9.63;;;7.80;;
4726;SDS011;2377;51.734;8.950;2022-07-01T10:01:18;7.67;;;6.40;;
4726;SDS011;2377;51.734;8.950;2022-07-01T10:03:49;10.50;;;6.73;;
4726;SDS011;2377;51.734;8.950;2022-07-01T10:06:22;9.37;;;7.10;;
4726;SDS011;2377;51.734;8.950;2022-07-01T10:09:25;9.57;;;7.40;;
4726;SDS011;2377;51.734;8.950;2022-07-01T10:15:07;11.07;;;5.33;;
4726;SDS011;2377;51.734;8.950;2022-07-01T10:17:41;10.57;;;6.43;;
4726;SDS011;2377;51.734;8.950;2022-07-01T10:20:13;11.00;;;6.63;;
4726;SDS011;2377;51.734;8.950;2022-07-01T10:22:43;9.00;;;5.33;;
4726;SDS011;2377;51.734;8.950;2022-07-01T10:25:30;8.53;;;6.77;;
4726;SDS011;2377;51.734;8.950;2022-07-01T10:28:11;7.17;;;6.17;;
4726;SDS011;2377;51.734;8.950;2022-07-01T10:30:54;9.10;;;6.80;;
4726;SDS011;2377;51.734;8.950;2022-07-01T10:33:38;10.60;;;6.63;;
4726;SDS011;2377;51.734;8.950;2022-07-01T10:36:17;7.87;;;5.93;;
4726;SDS011;2377;51.734;8.950;2022-07-01T10:39:12;8.17;;;5.70;;
4726;SDS011;2377;51.734;8.950;2022-07-01T10:42:00;5.47;;;4.80;;
4726;SDS011;2377;51.734;8.950;2022-07-01T10:44:30;8.00;;;5.97;;
4726;SDS011;2377;51.734;8.950;2022-07-01T10:47:02;8.37;;;5.40;;
4726;SDS011;2377;51.734;8.950;2022-07-01T10:49:53;6.30;;;5.00;;
4726;SDS011;2377;51.734;8.950;2022-07-01T10:52:27;12.00;;;5.80;;
4726;SDS011;2377;51.734;8.950;2022-07-01T10:54:55;9.13;;;5.30;;
4726;SDS011;2377;51.734;8.950;2022-07-01T10:57:27;7.83;;;5.50;;
4726;SDS011;2377;51.734;8.950;2022-07-01T11:03:11;8.80;;;5.60;;
4726;SDS011;2377;51.734;8.950;2022-07-01T11:05:49;8.07;;;5.23;;
4726;SDS011;2377;51.734;8.950;2022-07-01T11:08:25;13.00;;;6.10;;
4726;SDS011;2377;51.734;8.950;2022-07-01T11:10:54;8.90;;;5.53;;
4726;SDS011;2377;51.734;8.950;2022-07-01T11:13:24;9.53;;;5.97;;
4726;SDS011;2377;51.734;8.950;2022-07-01T11:15:53;8.53;;;6.20;;
4726;SDS011;2377;51.734;8.950;2022-07-01T11:18:21;7.27;;;5.80;;
4726;SDS011;2377;51.734;8.950;2022-07-01T11:20:49;11.23;;;6.07;;
4726;SDS011;2377;51.734;8.950;2022-07-01T11:23:17;8.83;;;6.07;;
4726;SDS011;2377;51.734;8.950;2022-07-01T11:25:46;10.10;;;6.47;;
4726;SDS011;2377;51.734;8.950;2022-07-01T11:28:14;10.30;;;6.87;;
4726;SDS011;2377;51.734;8.950;2022-07-01T11:30:41;8.30;;;5.33;;
4726;SDS011;2377;51.734;8.950;2022-07-01T11:33:08;15.87;;;6.47;;
4726;SDS011;2377;51.734;8.950;2022-07-01T11:35:36;8.50;;;5.03;;
4726;SDS011;2377;51.734;8.950;2022-07-01T11:38:22;6.20;;;4.63;;
4726;SDS011;2377;51.734;8.950;2022-07-01T11:41:10;8.37;;;4.97;;
4726;SDS011;2377;51.734;8.950;2022-07-01T11:43:46;8.50;;;4.83;;
4726;SDS011;2377;51.734;8.950;2022-07-01T11:46:13;5.73;;;4.20;;
4726;SDS011;2377;51.734;8.950;2022-07-01T11:48:41;6.90;;;3.83;;
4726;SDS011;2377;51.734;8.950;2022-07-01T11:51:11;6.33;;;3.50;;
4726;SDS011;2377;51.734;8.950;2022-07-01T11:53:41;8.30;;;4.10;;
4726;SDS011;2377;51.734;8.950;2022-07-01T11:56:12;8.00;;;3.00;;
4726;SDS011;2377;51.734;8.950;2022-07-01T11:58:40;5.37;;;3.33;;
4726;SDS011;2377;51.734;8.950;2022-07-01T12:01:22;4.03;;;2.63;;
4726;SDS011;2377;51.734;8.950;2022-07-01T12:03:56;4.90;;;2.83;;
4726;SDS011;2377;51.734;8.950;2022-07-01T12:06:26;5.30;;;3.03;;
4726;SDS011;2377;51.734;8.950;2022-07-01T12:08:54;4.33;;;2.50;;
4726;SDS011;2377;51.734;8.950;2022-07-01T12:11:26;7.00;;;3.07;;
4726;SDS011;2377;51.734;8.950;2022-07-01T12:13:54;6.40;;;2.70;;
4726;SDS011;2377;51.734;8.950;2022-07-01T12:16:25;4.93;;;2.53;;
4726;SDS011;2377;51.734;8.950;2022-07-01T12:18:55;6.90;;;3.13;;
4726;SDS011;2377;51.734;8.950;2022-07-01T12:21:25;6.20;;;2.90;;
4726;SDS011;2377;51.734;8.950;2022-07-01T12:24:08;4.23;;;3.00;;
4726;SDS011;2377;51.734;8.950;2022-07-01T12:26:49;4.57;;;2.90;;
4726;SDS011;2377;51.734;8.950;2022-07-01T12:29:20;5.00;;;3.33;;
4726;SDS011;2377;51.734;8.950;2022-07-01T12:31:56;9.73;;;3.73;;
4726;SDS011;2377;51.734;8.950;2022-07-01T12:34:36;4.10;;;3.10;;
4726;SDS011;2377;51.734;8.950;2022-07-01T12:37:09;5.53;;;3.80;;
4726;SDS011;2377;51.734;8.950;2022-07-01T12:39:45;7.70;;;4.20;;
4726;SDS011;2377;51.734;8.950;2022-07-01T12:42:27;5.73;;;3.70;;
4726;SDS011;2377;51.734;8.950;2022-07-01T12:44:59;7.40;;;4.07;;
4726;SDS011;2377;51.734;8.950;2022-07-01T12:47:29;4.83;;;3.30;;
4726;SDS011;2377;51.734;8.950;2022-07-01T12:50:08;4.50;;;3.47;;
4726;SDS011;2377;51.734;8.950;2022-07-01T12:52:40;4.73;;;3.53;;
4726;SDS011;2377;51.734;8.950;2022-07-01T12:55:15;5.37;;;3.70;;
4726;SDS011;2377;51.734;8.950;2022-07-01T12:57:45;5.23;;;3.13;;
4726;SDS011;2377;51.734;8.950;2022-07-01T13:00:14;5.00;;;3.40;;
4726;SDS011;2377;51.734;8.950;2022-07-01T13:02:42;5.57;;;3.77;;
4726;SDS011;2377;51.734;8.950;2022-07-01T13:05:09;4.37;;;2.90;;
4726;SDS011;2377;51.734;8.950;2022-07-01T13:07:37;5.37;;;2.70;;
4726;SDS011;2377;51.734;8.950;2022-07-01T13:10:05;5.27;;;3.23;;
4726;SDS011;2377;51.734;8.950;2022-07-01T13:12:33;6.03;;;3.57;;
4726;SDS011;2377;51.734;8.950;2022-07-01T13:15:01;5.20;;;3.40;;
4726;SDS011;2377;51.734;8.950;2022-07-01T13:17:30;5.07;;;2.70;;
4726;SDS011;2377;51.734;8.950;2022-07-01T13:19:59;5.73;;;2.80;;
4726;SDS011;2377;51.734;8.950;2022-07-01T13:22:26;7.73;;;3.67;;
4726;SDS011;2377;51.734;8.950;2022-07-01T13:24:53;6.07;;;3.07;;
4726;SDS011;2377;51.734;8.950;2022-07-01T13:27:20;6.23;;;3.50;;
4726;SDS011;2377;51.734;8.950;2022-07-01T13:29:48;4.33;;;3.23;;
4726;SDS011;2377;51.734;8.950;2022-07-01T13:32:16;7.10;;;3.10;;
4726;SDS011;2377;51.734;8.950;2022-07-01T13:34:44;3.40;;;2.57;;
4726;SDS011;2377;51.734;8.950;2022-07-01T13:37:11;4.30;;;2.80;;
4726;SDS011;2377;51.734;8.950;2022-07-01T13:39:38;7.23;;;3.27;;
4726;SDS011;2377;51.734;8.950;2022-07-01T13:42:05;7.70;;;3.10;;
4726;SDS011;2377;51.734;8.950;2022-07-01T13:44:33;6.50;;;2.90;;
4726;SDS011;2377;51.734;8.950;2022-07-01T13:47:00;6.50;;;3.10;;
4726;SDS011;2377;51.734;8.950;2022-07-01T13:49:31;6.27;;;2.80;;
4726;SDS011;2377;51.734;8.950;2022-07-01T13:51:58;4.37;;;2.47;;
4726;SDS011;2377;51.734;8.950;2022-07-01T13:54:25;3.63;;;2.20;;
4726;SDS011;2377;51.734;8.950;2022-07-01T13:56:53;3.67;;;2.50;;
4726;SDS011;2377;51.734;8.950;2022-07-01T13:59:20;3.70;;;2.20;;
4726;SDS011;2377;51.734;8.950;2022-07-01T14:01:47;4.03;;;2.23;;
4726;SDS011;2377;51.734;8.950;2022-07-01T14:04:14;8.30;;;2.77;;
4726;SDS011;2377;51.734;8.950;2022-07-01T14:06:42;4.97;;;2.60;;
4726;SDS011;2377;51.734;8.950;2022-07-01T14:09:10;5.03;;;2.70;;
4726;SDS011;2377;51.734;8.950;2022-07-01T14:11:37;5.33;;;2.80;;
4726;SDS011;2377;51.734;8.950;2022-07-01T14:14:04;4.40;;;2.57;;
4726;SDS011;2377;51.734;8.950;2022-07-01T14:16:32;5.57;;;2.87;;
4726;SDS011;2377;51.734;8.950;2022-07-01T14:18:59;4.77;;;2.60;;
4726;SDS011;2377;51.734;8.950;2022-07-01T14:21:27;7.77;;;3.23;;
4726;SDS011;2377;51.734;8.950;2022-07-01T14:23:56;3.40;;;2.07;;
4726;SDS011;2377;51.734;8.950;2022-07-01T14:26:23;5.17;;;2.90;;
4726;SDS011;2377;51.734;8.950;2022-07-01T14:28:51;6.27;;;2.87;;
4726;SDS011;2377;51.734;8.950;2022-07-01T14:31:18;5.07;;;2.83;;
4726;SDS011;2377;51.734;8.950;2022-07-01T14:33:45;8.63;;;3.30;;
4726;SDS011;2377;51.734;8.950;2022-07-01T14:36:12;4.00;;;2.17;;
4726;SDS011;2377;51.734;8.950;2022-07-01T14:38:40;6.97;;;3.10;;
4726;SDS011;2377;51.734;8.950;2022-07-01T14:41:08;4.03;;;2.50;;
4726;SDS011;2377;51.734;8.950;2022-07-01T14:43:36;4.70;;;2.63;;
4726;SDS011;2377;51.734;8.950;2022-07-01T14:46:06;5.53;;;2.47;;
4726;SDS011;2377;51.734;8.950;2022-07-01T14:48:36;6.73;;;2.47;;
4726;SDS011;2377;51.734;8.950;2022-07-01T14:51:04;4.43;;;2.47;;
4726;SDS011;2377;51.734;8.950;2022-07-01T14:53:31;5.23;;;2.33;;
4726;SDS011;2377;51.734;8.950;2022-07-01T14:55:59;6.93;;;2.50;;
4726;SDS011;2377;51.734;8.950;2022-07-01T14:58:28;4.70;;;2.40;;
4726;SDS011;2377;51.734;8.950;2022-07-01T15:00:55;3.70;;;2.37;;
4726;SDS011;2377;51.734;8.950;2022-07-01T15:03:23;5.63;;;2.20;;
4726;SDS011;2377;51.734;8.950;2022-07-01T15:05:50;7.40;;;2.13;;
4726;SDS011;2377;51.734;8.950;2022-07-01T15:08:17;4.50;;;2.37;;
4726;SDS011;2377;51.734;8.950;2022-07-01T15:10:44;5.90;;;2.53;;
4726;SDS011;2377;51.734;8.950;2022-07-01T15:13:13;3.27;;;2.53;;
4726;SDS011;2377;51.734;8.950;2022-07-01T15:15:42;4.77;;;2.40;;
4726;SDS011;2377;51.734;8.950;2022-07-01T15:18:10;6.13;;;2.33;;
4726;SDS011;2377;51.734;8.950;2022-07-01T15:20:37;3.03;;;2.23;;